Airfield :
LOGIN :

Register | Disclaimer

   EN    FR    IT 

 










Legend :    VFR   Marginal VFR   IFR   Intensive IFR   Very Intensive IFR
Visi :
Ceiling :
>= 8 km
>= 3000ft
5 to 8 km
1000 to 3000 ft
1500m to 5 km
500 to 1000 ft
800 to 1500m
200 to 500 ft
< 800m
< 200 ft
Symbols :   Thunderstorms  Fog  Heavy snow  Heavy precipitations  Wind > 20 kt
SIGMETs :     Misc.  Thunderstorms  Icing  Turbulence  Mountain Waves  Volcanic Ashes






- Airport Elevation : 124 ft
- IATA code : RNS


LFRN - Rennes

CURRENT METAR :
  • 162000Z AUTO 20011KT 9999 SCT020 BKN035 BKN049 09/07 Q1012 TEMPO 24015G25KT 4000 RA BKN012

EXPIRED METARs :
  • 161930Z AUTO 21010KT 9999 -RA FEW018/// BKN035/// BKN052/// ///TCU 09/07 Q1012 TEMPO 24015G25KT 4000 RA BECMG BKN025
  • 161900Z AUTO 22010KT 9999 -RA ///TCU 09/07 Q1012
  • 161830Z AUTO 22011KT 9999 -RA FEW039/// BKN058/// OVC070/// ///TCU 09/07 Q1011 TEMPO 24015G25KT 4000 RA BKN012
  • 161800Z AUTO 23011KT 9999 -RA FEW017/// SCT028/// BKN049/// ///TCU 09/07 Q1011 TEMPO 24015G25KT 4000 RA BKN012
  • 161730Z AUTO 24014KT 210V270 5000 -RA BR SCT018/// BKN025/// BKN033/// ///TCU 10/07 Q1010 TEMPO 24015G25KT SHRA BKN012

TAF TAF LFRN
Valid from the 16 at 18:00 until the 17 at 18:00 UTC


161700Z 1618/1718 25014KT 9999 BKN025
TEMPO 1618/1621 24015G25KT 4000 RA BKN012
PROB30
TEMPO 1705/1711 5000 SHRA
BECMG 1709/1711 25015G25KT
TEMPO 1711/1718 26020G35KT 4000 SHRA BKN020CB
BECMG 1716/1718 25012KT
ATIS : +33 2 99 67 72 50



MET'MAP, your aeronautical weather chart ! - Copyright ORBIFLY December 2007 - Disclaimer

ORBIFLY MET'MAP TEAM :

Programming & Development : Alexandra Zaïnal
Concept & original design : Baudouin d'Aumeries
Assistance for programming : Marc-Olivier Méhu
Technical & hardware support : Manuel Goepfert

Contact : metmap@orbifly.com




SOURCES & CREDITS :

   NOAA